Tuxedo Park, NY (10987)

10:37 PM EDT on September 23, 2014 (GMT -0400)
Greenwood Lake Dam Gaging Station | Change Station
CLOSE
Current Station
Personal Weather Station
Location: Hewitt, NJ
Elevation: 669 ft
Nearby Weather Stations

Elev 669 ft 41.16 °N, 74.33 °W | Updated 3 seconds ago

Clear
Clear
54.7 °F
Feels Like 54.7 °F
N
0.0
Wind Variable Wind from North
Gusts 0.0 mph

Today
High -- | Low -- °F
--% Chance of Precip.
Yesterday
High -- | Low -- °F
Precip. -- in
6:45 AM 6:52 PM
Waning Crescent, 0% visible
Pressure 30.42 in
Visibility 10.0 miles
Clouds Clear
Dew Point 28 °F
Humidity 35%
Rainfall 0.00 in
Snow Depth Not available.
UV 0 out of 12
Pollen 3.10 out of 12
PM2.5 Good
Flu Activity Not available.
METAR KSWF 240145Z 00000KT 10SM SKC 15/10 A3042

More Conditions Fewer Conditions

Pressure 30.42 in
Visibility 10.0 miles
Clouds Clear
Dew Point 28 °F
Humidity 35%
Rainfall 0.00 in
Snow Depth Not available.
UV 0 out of 12
Pollen 3.10 out of 12
PM2.5 Good
Flu Activity Not available.
METAR KSWF 240145Z 00000KT 10SM SKC 15/10 A3042

More Conditions Fewer Conditions

10-Day Weather Forecast

Almanac

Astronomy

Sep. 23, 2014 Rise Set
Actual Time 6:45 AM EDT 6:52 PM EDT
Civil Twilight 6:17 AM EDT 7:19 PM EDT
Nautical Twilight 5:45 AM EDT 7:51 PM EDT
Astronomical Twilight 5:12 AM EDT 8:24 PM EDT
Moon 6:07 AM EDT (9/23) 6:29 PM EDT (9/23)
Length of Visible Light 13h 02m
Length of Day
12h 07m
Tomorrow will be 2m 43s shorter.
Waning Crescent, 0% of the Moon is Illuminated
Today
Waning Crescent
Sep 24
New
Oct 1
First Quarter
Oct 8
Full
Oct 15
Last Quarter

Today's Extremes

State Highs State Lows

Community

WunderPhotos

Upload Photos

1,755,861 photos uploaded!

Nearby

Air Quality

  Air Quality AQ Index Pollutant
Yesterday Good
OZONE
Yesterday Good
PM2.5
Current Good
PM2.5
Tuesday Good
OZONE
Tuesday Good
PM2.5
Wednesday Good
OZONE
Wednesday Good
PM2.5

Snow Depth

Station Depth Elevation
No new snow has been reported.

Earthquake Activity

City Distance Mag. Time & Date
No recent earthquake activity has been reported nearby.
Minimum magnitude displayed is 2.5.

Coastal Water Temperatures

Place Temperature
No Stations Reporting

Nearby Weather Stations